Time;durP1;ratioP1;P1;durP2;ratioP2;P2;SDS_P1;SDS_P2;PMS_P1;PMS_P2;Temp;Humidity;BMP_temperature;BMP_pressure;BME280_temperature;BME280_humidity;BME280_pressure;Samples;Min_cycle;Max_cycle;Signal;HPM_P1;HPM_P2
2022/04/14 00:00:29;;;;;;;12.63;6.45;;;11.70;99.90;;;;;;5043301;28;20041;-73
2022/04/14 00:02:55;;;;;;;14.98;6.38;;;11.60;99.90;;;;;;5046161;28;20044;-73
2022/04/14 00:05:20;;;;;;;12.07;6.07;;;11.60;99.90;;;;;;5039854;28;20140;-73
2022/04/14 00:07:46;;;;;;;13.60;6.32;;;11.60;99.90;;;;;;5045924;28;20053;-73
2022/04/14 00:10:13;;;;;;;10.90;5.45;;;11.60;99.90;;;;;;5046959;28;20040;-73
2022/04/14 00:12:40;;;;;;;16.00;5.93;;;11.50;99.90;;;;;;5039807;28;20052;-73
2022/04/14 00:15:06;;;;;;;9.82;5.43;;;11.50;99.90;;;;;;5042602;28;20044;-73
2022/04/14 00:17:33;;;;;;;13.27;6.13;;;11.50;99.90;;;;;;5047050;28;20099;-73
2022/04/14 00:20:00;;;;;;;12.32;5.53;;;11.40;99.90;;;;;;5043434;28;20036;-73
2022/04/14 00:22:25;;;;;;;11.20;5.78;;;11.50;99.90;;;;;;5044291;28;20151;-73
2022/04/14 00:24:51;;;;;;;9.75;5.82;;;11.40;99.90;;;;;;5044461;28;20433;-73
2022/04/14 00:27:19;;;;;;;13.07;5.80;;;11.40;99.90;;;;;;5035371;28;20049;-72
2022/04/14 00:29:45;;;;;;;13.10;5.88;;;11.40;99.90;;;;;;5045265;28;20049;-73
2022/04/14 00:32:15;;;;;;;11.30;6.40;;;11.40;99.90;;;;;;5049288;28;20098;-73
2022/04/14 00:34:41;;;;;;;11.52;5.88;;;11.30;99.90;;;;;;5038754;28;20049;-73
2022/04/14 00:37:14;;;;;;;12.27;6.25;;;11.30;99.90;;;;;;5039458;28;20041;-73
2022/04/14 00:39:41;;;;;;;13.23;5.70;;;11.30;99.90;;;;;;5040384;28;20049;-73
2022/04/14 00:42:11;;;;;;;12.68;6.15;;;11.30;99.90;;;;;;5040953;28;20047;-73
2022/04/14 00:44:37;;;;;;;11.77;6.07;;;11.30;99.90;;;;;;5036017;28;20055;-73
2022/04/14 00:47:04;;;;;;;13.23;6.47;;;11.30;99.90;;;;;;5039222;28;20045;-73
2022/04/14 00:49:30;;;;;;;11.98;5.72;;;11.20;99.90;;;;;;5041964;28;20045;-73
2022/04/14 00:51:59;;;;;;;13.13;6.57;;;11.20;99.90;;;;;;5035176;28;20055;-73
2022/04/14 00:54:24;;;;;;;12.60;6.90;;;11.20;99.90;;;;;;5042362;28;20041;-73
2022/04/14 00:56:50;;;;;;;13.77;7.45;;;11.20;99.90;;;;;;5033671;28;20064;-73
2022/04/14 00:59:15;;;;;;;12.18;6.97;;;11.20;99.90;;;;;;5043697;28;20049;-73
2022/04/14 01:01:41;;;;;;;12.13;6.95;;;11.20;99.90;;;;;;5044482;28;20076;-73
2022/04/14 01:04:10;;;;;;;14.30;7.65;;;11.10;99.90;;;;;;5028266;28;20048;-73
2022/04/14 01:06:38;;;;;;;14.32;7.80;;;11.10;99.90;;;;;;5039154;28;20129;-73
2022/04/14 01:09:21;;;;;;;14.00;7.82;;;11.10;99.90;;;;;;5040419;28;20041;-73
2022/04/14 01:11:54;;;;;;;13.13;7.72;;;11.00;99.90;;;;;;5044760;28;20095;-73
2022/04/14 01:14:31;;;;;;;16.02;8.15;;;11.00;99.90;;;;;;5034871;28;20081;-73
2022/04/14 01:16:59;;;;;;;14.10;7.90;;;11.00;99.90;;;;;;5036474;28;20064;-73
2022/04/14 01:19:25;;;;;;;15.05;8.55;;;11.00;99.90;;;;;;5044515;28;20048;-73
2022/04/14 01:22:02;;;;;;;16.42;8.43;;;10.90;99.90;;;;;;5048902;28;20072;-73
2022/04/14 01:24:29;;;;;;;15.90;8.80;;;10.90;99.90;;;;;;5046351;28;20463;-73
2022/04/14 01:27:00;;;;;;;14.38;8.63;;;10.90;99.90;;;;;;5042689;28;20051;-73
2022/04/14 01:29:29;;;;;;;16.23;9.18;;;10.90;99.90;;;;;;5034135;28;20049;-73
2022/04/14 01:31:59;;;;;;;15.55;9.52;;;10.80;99.90;;;;;;5048344;28;20037;-73
2022/04/14 01:34:25;;;;;;;17.83;9.60;;;10.80;99.90;;;;;;5041808;28;20045;-73
2022/04/14 01:36:51;;;;;;;18.80;9.10;;;10.80;99.90;;;;;;5050072;28;20091;-73
2022/04/14 01:39:17;;;;;;;18.60;10.02;;;10.70;99.90;;;;;;5049174;28;20041;-73
2022/04/14 01:41:44;;;;;;;18.25;10.02;;;10.70;99.90;;;;;;5029895;28;20075;-73
2022/04/14 01:44:10;;;;;;;20.73;10.10;;;10.70;99.90;;;;;;5041047;28;20044;-73
2022/04/14 01:46:37;;;;;;;19.05;9.82;;;10.70;99.90;;;;;;5044356;28;20057;-73
2022/04/14 01:49:04;;;;;;;17.30;9.73;;;10.70;99.90;;;;;;5040660;28;20037;-73
2022/04/14 01:51:30;;;;;;;17.80;10.00;;;10.60;99.90;;;;;;5051452;28;20053;-73
2022/04/14 01:53:58;;;;;;;18.40;10.38;;;10.60;99.90;;;;;;5043739;28;20041;-73
2022/04/14 01:56:24;;;;;;;18.20;10.30;;;10.60;99.90;;;;;;5047771;28;20785;-73
2022/04/14 01:58:52;;;;;;;19.23;10.38;;;10.60;99.90;;;;;;5049698;28;20049;-73
2022/04/14 02:01:18;;;;;;;17.27;8.80;;;10.60;99.90;;;;;;5043567;28;20041;-73
2022/04/14 02:03:47;;;;;;;18.30;10.23;;;10.60;99.90;;;;;;5040027;28;20048;-73
2022/04/14 02:06:14;;;;;;;16.30;9.90;;;10.60;99.90;;;;;;5043704;28;20094;-73
2022/04/14 02:08:40;;;;;;;18.13;9.05;;;10.60;99.90;;;;;;5014885;28;20091;-73
2022/04/14 02:11:06;;;;;;;18.58;11.20;;;10.60;99.90;;;;;;5037988;28;20463;-73
2022/04/14 02:13:32;;;;;;;18.17;10.95;;;10.50;99.90;;;;;;5019411;28;20038;-73
2022/04/14 02:15:59;;;;;;;18.02;9.55;;;10.50;99.90;;;;;;5048825;28;20033;-73
2022/04/14 02:18:25;;;;;;;20.52;10.25;;;10.50;99.90;;;;;;5042660;28;20041;-73
2022/04/14 02:20:51;;;;;;;17.02;9.88;;;10.50;99.90;;;;;;5047778;28;20408;-73
2022/04/14 02:23:19;;;;;;;19.95;10.70;;;10.50;99.90;;;;;;5047955;28;20041;-73
2022/04/14 02:25:45;;;;;;;17.33;10.05;;;10.40;99.90;;;;;;5047798;28;20045;-73
2022/04/14 02:28:11;;;;;;;16.52;10.02;;;10.40;99.90;;;;;;5041288;28;20037;-73
2022/04/14 02:30:37;;;;;;;22.10;11.00;;;10.40;99.90;;;;;;5036804;28;20118;-73
2022/04/14 02:33:03;;;;;;;22.70;11.30;;;10.40;99.90;;;;;;5049186;28;20045;-73
2022/04/14 02:35:29;;;;;;;18.35;11.65;;;10.40;99.90;;;;;;5046272;28;20068;-73
2022/04/14 02:37:56;;;;;;;17.75;10.68;;;10.30;99.90;;;;;;5050025;28;20044;-73
2022/04/14 02:40:24;;;;;;;18.05;10.40;;;10.30;99.90;;;;;;5045588;28;20045;-73
2022/04/14 02:42:53;;;;;;;18.27;11.43;;;10.30;99.90;;;;;;5025715;28;20037;-73
2022/04/14 02:45:19;;;;;;;18.45;11.35;;;10.30;99.90;;;;;;5046423;28;20405;-73
2022/04/14 02:47:47;;;;;;;19.73;13.20;;;10.30;99.90;;;;;;5039215;28;20456;-73
2022/04/14 02:50:12;;;;;;;20.67;12.68;;;10.20;99.90;;;;;;5049976;28;20051;-73
2022/04/14 02:52:38;;;;;;;23.77;13.13;;;10.20;99.90;;;;;;5042265;28;20033;-73
2022/04/14 02:55:07;;;;;;;23.58;13.98;;;10.20;99.90;;;;;;5042522;28;20499;-73
2022/04/14 02:57:34;;;;;;;18.98;12.43;;;10.20;99.90;;;;;;5036020;28;20052;-73
2022/04/14 03:00:00;;;;;;;21.10;13.70;;;10.10;99.90;;;;;;5047749;28;20064;-73
2022/04/14 03:02:28;;;;;;;23.00;13.00;;;10.10;99.90;;;;;;5047269;28;20114;-73
2022/04/14 03:04:54;;;;;;;21.00;11.95;;;10.00;99.90;;;;;;5043431;28;20500;-73
2022/04/14 03:07:20;;;;;;;26.02;14.57;;;10.00;99.90;;;;;;5038611;28;20045;-73
2022/04/14 03:09:46;;;;;;;21.88;13.50;;;10.00;99.90;;;;;;5037783;28;20057;-73
2022/04/14 03:12:12;;;;;;;25.80;15.32;;;10.00;99.90;;;;;;5041194;28;20056;-73
2022/04/14 03:14:38;;;;;;;24.58;14.57;;;9.90;99.90;;;;;;5035405;28;20042;-73
2022/04/14 03:17:06;;;;;;;25.80;14.98;;;9.90;99.90;;;;;;5038786;28;20053;-73
2022/04/14 03:19:32;;;;;;;23.92;15.80;;;9.90;99.90;;;;;;5045248;28;20066;-73
2022/04/14 03:22:00;;;;;;;24.83;15.45;;;9.90;99.90;;;;;;5037599;28;20547;-73
2022/04/14 03:24:26;;;;;;;27.00;15.98;;;9.80;99.90;;;;;;5041136;28;20057;-73
2022/04/14 03:26:52;;;;;;;26.15;15.68;;;9.80;99.90;;;;;;5045552;28;20048;-73
2022/04/14 03:29:18;;;;;;;30.88;16.15;;;9.70;99.90;;;;;;5045156;28;20127;-73
2022/04/14 03:31:44;;;;;;;25.08;15.82;;;9.70;99.90;;;;;;5039892;28;20115;-73
2022/04/14 03:34:09;;;;;;;31.25;17.95;;;9.70;99.90;;;;;;5042836;28;20477;-73
2022/04/14 03:36:35;;;;;;;24.88;16.48;;;9.60;99.90;;;;;;5016416;28;20401;-73
2022/04/14 03:39:00;;;;;;;26.92;16.40;;;9.70;99.90;;;;;;5043393;28;20040;-72
2022/04/14 03:41:26;;;;;;;26.55;16.92;;;9.60;99.90;;;;;;5038893;28;20069;-73
2022/04/14 03:43:52;;;;;;;25.33;16.58;;;9.60;99.90;;;;;;5040321;28;20484;-72
2022/04/14 03:46:19;;;;;;;24.25;16.45;;;9.60;99.90;;;;;;5038111;28;20045;-73
2022/04/14 03:48:45;;;;;;;25.52;16.35;;;9.50;99.90;;;;;;5038305;28;20060;-73
2022/04/14 03:51:14;;;;;;;27.75;16.70;;;9.50;99.90;;;;;;5050379;28;20496;-72
2022/04/14 03:53:40;;;;;;;29.27;17.23;;;9.40;99.90;;;;;;5043166;28;20049;-73
2022/04/14 03:56:09;;;;;;;28.85;17.65;;;9.40;99.90;;;;;;5042793;28;20072;-73
2022/04/14 03:58:35;;;;;;;34.20;18.13;;;9.40;99.90;;;;;;5044686;28;20501;-73
2022/04/14 04:01:01;;;;;;;26.95;17.40;;;9.30;99.90;;;;;;5039661;28;20044;-73
2022/04/14 04:03:27;;;;;;;27.67;17.70;;;9.30;99.90;;;;;;5039374;28;20037;-73
2022/04/14 04:05:52;;;;;;;27.88;16.52;;;9.30;99.90;;;;;;5045007;28;20606;-73
2022/04/14 04:08:18;;;;;;;28.55;18.48;;;9.20;99.90;;;;;;5041688;28;20057;-73
2022/04/14 04:10:47;;;;;;;25.58;17.30;;;9.20;99.90;;;;;;5039442;28;20048;-73
2022/04/14 04:13:13;;;;;;;25.38;16.13;;;9.20;99.90;;;;;;5045191;28;20119;-73
2022/04/14 04:15:40;;;;;;;25.15;16.83;;;9.10;99.90;;;;;;5020029;28;20045;-73
2022/04/14 04:18:06;;;;;;;26.73;17.13;;;9.10;99.90;;;;;;5034613;28;20045;-72
2022/04/14 04:20:32;;;;;;;27.67;18.05;;;9.10;99.90;;;;;;5032345;28;20049;-73
2022/04/14 04:23:05;;;;;;;25.75;18.38;;;9.00;99.90;;;;;;5042341;28;20056;-73
2022/04/14 04:25:32;;;;;;;30.98;17.13;;;9.00;99.90;;;;;;5045078;28;20454;-73
2022/04/14 04:27:58;;;;;;;23.80;14.77;;;8.90;99.90;;;;;;5046444;28;20029;-73
2022/04/14 04:30:28;;;;;;;24.77;16.33;;;8.90;99.90;;;;;;5044297;28;20091;-73
2022/04/14 04:32:54;;;;;;;29.75;17.17;;;8.90;99.90;;;;;;5041850;28;20082;-73
2022/04/14 04:35:20;;;;;;;27.45;16.02;;;8.80;99.90;;;;;;5043314;28;20442;-73
2022/04/14 04:37:46;;;;;;;29.00;18.35;;;8.80;99.90;;;;;;5041812;28;20037;-73
2022/04/14 04:40:12;;;;;;;30.73;18.05;;;8.70;99.90;;;;;;5037596;28;20532;-73
2022/04/14 04:42:37;;;;;;;28.67;17.15;;;8.70;99.90;;;;;;5037334;28;20056;-73
2022/04/14 04:45:03;;;;;;;24.23;16.05;;;8.80;99.90;;;;;;5039094;28;20059;-72
2022/04/14 04:47:29;;;;;;;25.98;16.05;;;8.60;99.90;;;;;;5030208;28;20041;-73
2022/04/14 04:49:55;;;;;;;27.00;17.30;;;8.60;99.90;;;;;;5048490;28;20093;-73
2022/04/14 04:52:22;;;;;;;26.42;17.20;;;8.60;99.90;;;;;;5040490;28;20124;-73
2022/04/14 04:54:48;;;;;;;28.48;17.17;;;8.50;99.90;;;;;;5048390;28;20054;-73
2022/04/14 04:57:14;;;;;;;26.63;17.33;;;8.50;99.90;;;;;;5050037;28;20132;-73
2022/04/14 04:59:40;;;;;;;28.13;17.15;;;8.50;99.90;;;;;;5046810;28;20128;-73
2022/04/14 05:02:05;;;;;;;24.92;16.55;;;8.40;99.90;;;;;;5046606;28;20045;-73
2022/04/14 05:04:31;;;;;;;26.85;18.27;;;8.40;99.90;;;;;;5043937;28;20102;-72
2022/04/14 05:07:00;;;;;;;35.20;19.30;;;8.40;99.90;;;;;;5049909;28;20053;-73
2022/04/14 05:09:25;;;;;;;28.40;19.08;;;8.40;99.90;;;;;;5045653;28;20037;-73
2022/04/14 05:11:51;;;;;;;29.33;19.20;;;8.40;99.90;;;;;;5056151;28;20056;-73
2022/04/14 05:14:16;;;;;;;30.08;19.20;;;8.40;99.90;;;;;;5045080;28;20048;-73
2022/04/14 05:16:45;;;;;;;32.17;19.80;;;8.40;99.90;;;;;;5060843;28;20866;-73
2022/04/14 05:19:11;;;;;;;36.08;20.05;;;8.40;99.90;;;;;;5035722;28;20045;-73
2022/04/14 05:21:39;;;;;;;33.22;20.70;;;8.80;99.90;;;;;;5044793;28;20080;-72
2022/04/14 05:24:06;;;;;;;34.85;21.80;;;8.40;99.90;;;;;;5042926;28;20996;-72
2022/04/14 05:26:33;;;;;;;37.80;24.33;;;8.40;99.90;;;;;;5044028;28;20246;-73
2022/04/14 05:29:02;;;;;;;39.25;23.73;;;8.40;99.90;;;;;;5045822;28;20053;-73
2022/04/14 05:31:28;;;;;;;37.45;23.20;;;8.40;99.90;;;;;;5046733;28;20053;-73
2022/04/14 05:33:54;;;;;;;35.13;22.88;;;8.60;99.90;;;;;;5041478;28;20041;-73
2022/04/14 05:36:21;;;;;;;39.47;24.08;;;8.40;99.90;;;;;;5034444;28;20085;-74
2022/04/14 05:38:46;;;;;;;36.10;23.98;;;8.40;99.90;;;;;;5048109;28;20041;-73
2022/04/14 05:41:15;;;;;;;37.22;24.05;;;8.50;99.90;;;;;;5032007;28;20046;-73
2022/04/14 05:43:45;;;;;;;42.10;24.98;;;8.50;99.90;;;;;;5033821;28;20076;-74
2022/04/14 05:46:11;;;;;;;39.10;25.05;;;8.50;99.90;;;;;;5033723;28;20045;-73
2022/04/14 05:48:36;;;;;;;42.50;26.92;;;8.50;99.90;;;;;;5040353;28;20051;-73
2022/04/14 05:51:02;;;;;;;45.97;27.23;;;8.60;99.90;;;;;;5059959;28;20057;-73
2022/04/14 05:53:28;;;;;;;41.10;26.00;;;8.60;99.90;;;;;;5049605;28;20041;-73
2022/04/14 05:55:54;;;;;;;40.78;25.83;;;8.70;99.90;;;;;;5052588;28;20053;-73
2022/04/14 05:58:20;;;;;;;46.55;30.63;;;8.70;99.90;;;;;;5050011;28;20041;-73
2022/04/14 06:00:45;;;;;;;47.53;30.80;;;8.80;99.90;;;;;;5044044;28;20155;-73
2022/04/14 06:03:11;;;;;;;50.30;31.48;;;8.80;99.90;;;;;;5049425;28;20102;-73
2022/04/14 06:05:37;;;;;;;50.90;31.27;;;8.90;99.90;;;;;;5051851;28;20048;-73
2022/04/14 06:08:03;;;;;;;51.17;30.77;;;9.10;99.90;;;;;;5049245;28;20037;-73
2022/04/14 06:10:29;;;;;;;50.83;30.25;;;9.00;99.90;;;;;;5045261;28;20038;-73
2022/04/14 06:12:55;;;;;;;52.42;32.17;;;9.00;99.90;;;;;;5047826;28;20116;-73
2022/04/14 06:15:21;;;;;;;44.63;27.77;;;9.10;99.90;;;;;;5046650;28;20140;-73
2022/04/14 06:17:47;;;;;;;52.17;30.02;;;9.10;99.90;;;;;;5042621;28;20040;-73
2022/04/14 06:20:13;;;;;;;48.90;31.17;;;9.20;99.90;;;;;;5047642;28;20402;-73
2022/04/14 06:22:40;;;;;;;55.20;31.60;;;9.30;99.90;;;;;;5036994;28;20064;-73
2022/04/14 06:25:12;;;;;;;52.38;30.20;;;9.40;99.90;;;;;;5061711;28;20053;-73
2022/04/14 06:27:46;;;;;;;53.97;31.75;;;9.40;99.90;;;;;;5046069;28;20045;-73
2022/04/14 06:30:13;;;;;;;53.70;32.33;;;9.50;99.90;;;;;;5047204;28;20067;-73
2022/04/14 06:32:39;;;;;;;51.33;32.20;;;9.60;99.90;;;;;;5041124;28;20555;-73
2022/04/14 06:35:07;;;;;;;48.10;29.38;;;9.70;99.90;;;;;;5036845;28;20113;-73
2022/04/14 06:37:34;;;;;;;46.38;29.75;;;9.80;99.90;;;;;;5038421;28;20044;-73
2022/04/14 06:39:59;;;;;;;40.63;26.83;;;9.90;99.90;;;;;;5046475;28;20129;-74
2022/04/14 06:42:25;;;;;;;51.97;31.35;;;10.00;99.90;;;;;;5038632;28;20148;-77
2022/04/14 06:44:51;;;;;;;53.15;31.17;;;10.00;99.90;;;;;;5041158;28;20595;-77
2022/04/14 06:47:16;;;;;;;45.92;29.08;;;10.10;99.90;;;;;;5045928;28;20103;-77
2022/04/14 06:49:42;;;;;;;50.17;29.35;;;10.10;99.90;;;;;;5050425;28;20051;-76
2022/04/14 06:52:08;;;;;;;49.00;29.25;;;10.20;99.90;;;;;;5042838;28;20033;-74
2022/04/14 06:54:34;;;;;;;46.50;29.30;;;10.30;99.90;;;;;;5049852;28;20114;-74
2022/04/14 06:56:59;;;;;;;46.55;29.77;;;10.40;99.90;;;;;;5051802;28;20508;-74
2022/04/14 06:59:27;;;;;;;38.85;26.48;;;10.60;99.90;;;;;;5061031;28;20045;-74
2022/04/14 07:01:53;;;;;;;42.92;26.60;;;10.60;99.90;;;;;;5050899;28;20110;-75
2022/04/14 07:04:18;;;;;;;42.50;25.98;;;10.70;99.90;;;;;;5053901;28;20060;-75
2022/04/14 07:06:46;;;;;;;42.40;24.58;;;10.80;99.90;;;;;;5055952;28;20044;-75
2022/04/14 07:09:11;;;;;;;39.25;24.60;;;10.90;99.90;;;;;;5052183;28;20037;-74
2022/04/14 07:11:37;;;;;;;40.65;26.13;;;11.10;99.90;;;;;;5051832;28;20045;-75
2022/04/14 07:14:02;;;;;;;32.65;22.60;;;11.10;99.90;;;;;;5050437;28;20044;-74
2022/04/14 07:16:28;;;;;;;38.92;25.38;;;11.20;99.90;;;;;;5050116;28;20037;-75
2022/04/14 07:18:54;;;;;;;36.78;23.83;;;11.20;99.90;;;;;;5051715;28;20048;-75
2022/04/14 07:21:19;;;;;;;34.25;22.95;;;11.20;99.90;;;;;;5051357;28;20124;-75
2022/04/14 07:23:45;;;;;;;36.88;22.90;;;11.20;99.90;;;;;;5052057;28;20821;-75
2022/04/14 07:26:11;;;;;;;37.88;24.90;;;11.20;99.90;;;;;;5052105;28;20742;-75
2022/04/14 07:28:36;;;;;;;36.78;23.40;;;11.20;99.90;;;;;;5049306;28;20125;-76
2022/04/14 07:31:02;;;;;;;41.42;23.30;;;11.30;99.90;;;;;;5050813;28;20055;-76
2022/04/14 07:33:28;;;;;;;39.40;21.55;;;11.30;99.90;;;;;;5052127;28;20040;-77
2022/04/14 07:35:54;;;;;;;35.35;21.60;;;11.40;99.90;;;;;;5052015;28;20144;-75
2022/04/14 07:38:19;;;;;;;33.03;21.50;;;11.50;99.90;;;;;;5051936;28;20112;-75
2022/04/14 07:40:45;;;;;;;34.05;19.98;;;11.60;99.90;;;;;;5050477;28;20678;-77
2022/04/14 07:43:13;;;;;;;33.03;19.98;;;11.60;99.90;;;;;;5037625;28;20041;-76
2022/04/14 07:45:45;;;;;;;27.95;18.05;;;11.70;99.90;;;;;;5042517;28;20435;-76
2022/04/14 07:48:11;;;;;;;29.38;19.23;;;12.30;99.90;;;;;;5050780;28;20124;-76
2022/04/14 07:50:37;;;;;;;34.03;20.23;;;11.80;99.90;;;;;;5056254;28;20115;-75
2022/04/14 07:53:03;;;;;;;30.67;19.35;;;11.80;99.90;;;;;;5054771;28;20366;-75
2022/04/14 07:55:35;;;;;;;30.95;19.65;;;11.90;99.90;;;;;;5052441;28;20105;-74
2022/04/14 07:58:07;;;;;;;29.13;18.27;;;12.00;99.90;;;;;;5048940;28;20041;-76
2022/04/14 08:00:36;;;;;;;28.45;18.30;;;12.10;99.90;;;;;;5053258;28;20397;-77
2022/04/14 08:03:04;;;;;;;27.08;18.05;;;12.20;99.90;;;;;;5051792;28;20048;-75
2022/04/14 08:05:38;;;;;;;27.38;17.65;;;12.20;99.90;;;;;;5051033;28;20052;-74
2022/04/14 08:08:05;;;;;;;;;;;12.40;99.90;;;;;;5052560;28;20059;-75
2022/04/14 08:10:31;;;;;;;27.38;16.67;;;12.40;99.90;;;;;;5047878;28;20380;-74
2022/04/14 08:12:57;;;;;;;27.13;17.17;;;12.50;99.90;;;;;;5036911;28;20044;-76
2022/04/14 08:15:23;;;;;;;27.52;16.73;;;12.60;99.90;;;;;;5050602;28;20140;-74
2022/04/14 08:17:49;;;;;;;26.48;17.33;;;12.70;99.90;;;;;;5051483;28;20129;-75
2022/04/14 08:20:16;;;;;;;24.80;17.95;;;12.70;99.90;;;;;;5050945;28;20041;-74
2022/04/14 08:22:52;;;;;;;26.77;17.75;;;12.80;99.90;;;;;;5049250;28;20041;-74
2022/04/14 08:25:20;;;;;;;25.58;17.50;;;12.90;99.90;;;;;;5041327;28;20424;-77
2022/04/14 08:27:49;;;;;;;30.25;19.23;;;13.10;99.90;;;;;;5031173;28;20472;-78
2022/04/14 08:30:17;;;;;;;27.63;18.33;;;13.20;99.90;;;;;;5050331;28;20045;-77
2022/04/14 08:32:43;;;;;;;28.42;18.88;;;13.30;99.90;;;;;;5051300;28;20565;-76
2022/04/14 08:35:10;;;;;;;27.38;18.08;;;13.50;99.90;;;;;;5051067;28;20049;-78
2022/04/14 08:37:36;;;;;;;27.73;18.73;;;13.50;99.90;;;;;;5051831;28;20040;-78
2022/04/14 08:40:07;;;;;;;31.27;18.70;;;13.70;99.90;;;;;;5040468;28;20057;-77
2022/04/14 08:42:39;;;;;;;28.58;18.42;;;13.80;99.90;;;;;;5045107;28;20099;-77
2022/04/14 08:45:16;;;;;;;26.52;17.50;;;13.90;99.90;;;;;;5051370;28;20131;-77
2022/04/14 08:47:42;;;;;;;25.67;18.00;;;14.10;99.90;;;;;;5051135;28;20460;-70
2022/04/14 08:50:15;;;;;;;24.23;18.00;;;14.20;99.90;;;;;;5049974;28;20068;-75
2022/04/14 08:52:41;;;;;;;27.90;18.05;;;14.30;99.90;;;;;;5049308;28;20052;-72
2022/04/14 08:55:11;;;;;;;23.98;17.30;;;14.30;99.90;;;;;;5049832;28;20029;-72
2022/04/14 08:57:41;;;;;;;25.00;18.92;;;14.50;99.90;;;;;;5049905;28;20163;-69
2022/04/14 09:00:10;;;;;;;29.63;18.70;;;14.60;99.90;;;;;;5029791;28;20107;-71
2022/04/14 09:02:36;;;;;;;28.90;19.15;;;14.70;99.90;;;;;;5045101;28;20095;-73
2022/04/14 09:05:04;;;;;;;29.27;19.15;;;14.80;99.90;;;;;;5050712;28;20037;-73
2022/04/14 09:07:30;;;;;;;25.83;18.13;;;15.00;99.90;;;;;;5048886;28;20094;-74
2022/04/14 09:09:55;;;;;;;30.08;20.58;;;15.00;99.90;;;;;;5047889;28;20053;-73
2022/04/14 09:12:21;;;;;;;26.83;19.65;;;15.10;99.90;;;;;;5049759;28;20051;-72
2022/04/14 09:14:48;;;;;;;26.10;18.20;;;15.20;99.90;;;;;;5050755;28;20500;-72
2022/04/14 09:17:14;;;;;;;25.92;18.52;;;15.30;99.90;;;;;;5049341;28;20036;-71
2022/04/14 09:19:41;;;;;;;25.48;17.15;;;15.40;99.90;;;;;;5049232;28;20040;-72
2022/04/14 09:22:15;;;;;;;24.55;17.70;;;15.50;99.90;;;;;;5042565;28;20424;-72
2022/04/14 09:24:47;;;;;;;24.52;17.02;;;15.50;99.90;;;;;;5049236;28;20044;-73
2022/04/14 09:27:31;;;;;;;23.02;17.73;;;15.80;99.90;;;;;;5048812;28;20037;-76
2022/04/14 09:30:05;;;;;;;20.77;15.80;;;16.10;99.90;;;;;;5048387;28;20408;-77
2022/04/14 09:32:37;;;;;;;23.05;16.08;;;16.30;99.90;;;;;;5046312;28;20043;-76
2022/04/14 09:35:06;;;;;;;23.80;15.43;;;16.50;99.90;;;;;;5044947;28;20045;-76
2022/04/14 09:37:33;;;;;;;22.48;14.82;;;16.50;99.90;;;;;;5030890;28;20053;-74
2022/04/14 09:40:00;;;;;;;20.65;14.75;;;16.60;99.90;;;;;;5034239;28;20481;-74
2022/04/14 09:42:29;;;;;;;18.80;13.68;;;16.60;99.90;;;;;;5039410;28;20444;-74
2022/04/14 09:45:23;;;;;;;18.42;13.20;;;16.70;99.90;;;;;;5053807;28;20095;-74
2022/04/14 09:47:50;;;;;;;15.02;10.35;;;16.60;99.90;;;;;;5049392;28;20475;-75
2022/04/14 09:50:46;;;;;;;15.43;10.10;;;16.70;99.90;;;;;;5054403;28;20090;-76
2022/04/14 09:53:19;;;;;;;15.32;9.80;;;16.70;99.90;;;;;;5065685;28;20071;-76
2022/04/14 09:55:56;;;;;;;14.73;10.80;;;16.70;99.90;;;;;;5052076;28;20080;-76
2022/04/14 09:58:24;;;;;;;14.18;10.27;;;16.80;99.90;;;;;;5051226;28;20082;-75
2022/04/14 10:00:59;;;;;;;14.13;8.52;;;16.80;99.90;;;;;;5052818;28;20045;-75
2022/04/14 10:03:29;;;;;;;13.80;9.20;;;16.70;99.90;;;;;;5046143;28;20064;-75
2022/04/14 10:05:59;;;;;;;14.73;9.52;;;16.60;99.90;;;;;;5052205;28;20045;-75
2022/04/14 10:08:25;;;;;;;13.27;8.13;;;16.60;99.90;;;;;;5052481;28;20041;-75
2022/04/14 10:11:09;;;;;;;12.52;8.60;;;16.50;99.90;;;;;;5051100;28;20049;-78
2022/04/14 10:13:36;;;;;;;14.57;9.10;;;16.50;99.90;;;;;;5050956;28;20033;-77
2022/04/14 10:16:13;;;;;;;12.43;8.60;;;16.50;99.90;;;;;;5053762;28;20373;-77
2022/04/14 10:18:39;;;;;;;12.40;6.43;;;16.60;99.90;;;;;;5049668;28;20112;-77
2022/04/14 10:21:06;;;;;;;10.25;6.78;;;16.50;99.90;;;;;;5051152;28;20041;-77
2022/04/14 10:23:34;;;;;;;11.77;7.35;;;16.30;99.90;;;;;;5050623;28;20048;-77
2022/04/14 10:26:01;;;;;;;12.57;6.80;;;16.30;99.90;;;;;;5051794;28;20464;-78
2022/04/14 10:28:29;;;;;;;13.43;6.90;;;16.30;99.90;;;;;;5049995;28;20045;-76
2022/04/14 10:30:57;;;;;;;17.05;8.20;;;16.60;99.90;;;;;;5050027;28;20504;-75
2022/04/14 10:33:24;;;;;;;13.23;7.32;;;16.90;99.90;;;;;;5050290;28;20041;-75
2022/04/14 10:35:51;;;;;;;13.43;6.63;;;17.20;99.90;;;;;;5050174;28;20160;-75
2022/04/14 10:38:36;;;;;;;9.70;5.43;;;17.20;99.90;;;;;;5049994;28;20045;-75
2022/04/14 10:41:12;;;;;;;9.73;5.20;;;17.20;99.90;;;;;;5045498;28;20084;-75
2022/04/14 10:43:43;;;;;;;8.63;4.85;;;16.90;99.90;;;;;;5051360;28;20041;-74
2022/04/14 10:46:15;;;;;;;10.85;6.35;;;17.00;99.90;;;;;;5051735;28;20401;-76
2022/04/14 10:48:46;;;;;;;10.35;4.68;;;17.20;99.90;;;;;;5051487;28;20115;-76
2022/04/14 10:51:24;;;;;;;11.48;5.13;;;17.40;99.90;;;;;;5053037;28;20044;-77
2022/04/14 10:54:11;;;;;;;8.80;5.05;;;17.60;99.90;;;;;;5051539;28;20605;-77
2022/04/14 10:56:44;;;;;;;7.93;4.85;;;17.80;99.90;;;;;;5051821;28;20061;-77
2022/04/14 10:59:14;;;;;;;8.07;4.68;;;18.00;99.90;;;;;;5048948;28;20092;-76
2022/04/14 11:01:46;;;;;;;10.13;4.50;;;18.20;99.90;;;;;;5038957;28;20508;-77
2022/04/14 11:04:36;;;;;;;8.23;4.40;;;18.30;99.90;;;;;;5051436;28;20560;-77
2022/04/14 11:07:12;;;;;;;8.70;4.47;;;18.20;99.90;;;;;;5053002;28;20086;-77
2022/04/14 11:09:52;;;;;;;7.53;4.05;;;18.00;99.90;;;;;;5050885;28;20494;-78
2022/04/14 11:12:56;;;;;;;8.57;4.18;;;18.10;99.90;;;;;;5051332;28;20077;-77
2022/04/14 11:15:30;;;;;;;6.50;3.97;;;18.20;99.90;;;;;;5040354;28;20994;-77
2022/04/14 11:18:03;;;;;;;6.70;3.28;;;18.40;99.90;;;;;;5052485;28;20044;-76
2022/04/14 11:20:35;;;;;;;6.20;3.30;;;18.60;99.90;;;;;;5051954;28;20496;-77
2022/04/14 11:23:15;;;;;;;7.78;3.42;;;18.80;99.90;;;;;;5050472;28;20068;-77
2022/04/14 11:28:33;;;;;;;6.18;3.10;;;19.00;99.90;;;;;;5042554;28;20049;-77
2022/04/14 11:31:00;;;;;;;5.75;2.55;;;19.10;99.90;;;;;;5031761;28;20378;-77
2022/04/14 11:33:31;;;;;;;10.15;3.42;;;19.00;99.90;;;;;;5031226;28;20045;-77
2022/04/14 11:36:16;;;;;;;7.13;3.25;;;18.90;99.90;;;;;;5051774;28;20397;-76
2022/04/14 11:38:58;;;;;;;5.75;3.08;;;18.70;99.90;;;;;;5051533;28;20151;-77
2022/04/14 11:41:31;;;;;;;9.48;3.22;;;18.50;99.90;;;;;;5044401;28;20055;-77
2022/04/14 11:43:57;;;;;;;6.30;2.53;;;18.30;99.90;;;;;;5051219;28;20086;-77
2022/04/14 11:46:23;;;;;;;6.43;2.45;;;18.00;99.90;;;;;;5059786;28;20059;-74
2022/04/14 11:48:50;;;;;;;5.30;2.13;;;17.90;99.90;;;;;;5053047;28;20041;-77
2022/04/14 11:51:19;;;;;;;6.45;2.15;;;17.70;99.90;;;;;;5051361;28;20060;-77
2022/04/14 11:53:45;;;;;;;7.07;2.55;;;17.70;99.90;;;;;;5050748;28;20396;-77
2022/04/14 11:56:21;;;;;;;4.80;1.77;;;17.70;99.90;;;;;;5046615;28;20044;-77
2022/04/14 11:58:51;;;;;;;4.68;1.63;;;17.90;99.90;;;;;;5039221;28;20043;-77
2022/04/14 12:01:17;;;;;;;6.03;2.00;;;18.20;99.90;;;;;;5066920;28;20060;-77
2022/04/14 12:03:43;;;;;;;7.35;1.90;;;18.30;99.90;;;;;;5050974;28;20041;-76
2022/04/14 12:06:16;;;;;;;6.53;2.20;;;18.40;99.90;;;;;;5051090;28;20040;-78
2022/04/14 12:08:42;;;;;;;4.60;1.67;;;18.50;99.90;;;;;;5051648;28;20041;-76
2022/04/14 12:11:13;;;;;;;4.15;1.45;;;18.60;99.90;;;;;;5041973;28;20045;-76
2022/04/14 12:13:42;;;;;;;6.47;2.33;;;18.70;99.90;;;;;;5048949;28;20076;-76
2022/04/14 12:16:10;;;;;;;4.60;1.60;;;18.80;99.90;;;;;;5050786;28;20044;-77
2022/04/14 12:18:37;;;;;;;5.45;1.70;;;18.90;99.90;;;;;;5049747;28;20051;-77
2022/04/14 12:21:04;;;;;;;5.28;1.55;;;19.00;99.90;;;;;;5049257;28;20045;-75
2022/04/14 12:23:33;;;;;;;7.03;2.10;;;19.00;99.90;;;;;;5048125;28;20469;-75
2022/04/14 12:26:03;;;;;;;4.40;1.95;;;19.00;99.90;;;;;;5047097;28;20084;-76
2022/04/14 12:28:29;;;;;;;11.10;2.55;;;19.00;99.90;;;;;;5049294;28;20048;-75
2022/04/14 12:30:55;;;;;;;6.60;3.10;;;19.00;99.90;;;;;;5053760;28;20040;-75
2022/04/14 12:33:28;;;;;;;6.35;3.05;;;19.10;99.90;;;;;;5049100;28;20041;-76
2022/04/14 12:36:06;;;;;;;10.32;3.50;;;19.10;99.90;;;;;;5049214;28;20041;-76
2022/04/14 12:38:45;;;;;;;8.68;3.20;;;19.00;99.90;;;;;;5039607;28;20045;-76
2022/04/14 12:41:19;;;;;;;8.85;3.50;;;18.90;99.90;;;;;;5046437;28;20332;-75
2022/04/14 12:43:47;;;;;;;7.47;3.22;;;18.90;99.90;;;;;;5056386;28;20037;-75